Air Resources Laboratory banner image
Air Resources Laboratory web site National Oceanic and Atmospheric Administration (NOAA)

la metar


KAEX 171053Z 02005KT 10SM SCT042 OVC050 09/08 A3004 RMK AO2 RAE48 SLP175 P0006
 T00890083 $=
KARA 171053Z AUTO 25012KT 4SM +RA BR OVC025 19/18 A3001 RMK AO2 PK WND
 16026/1007 WSHFT 1025 SLP162 P0113 T01940183=
KASD 171053Z AUTO 16009G19KT 10SM FEW017 BKN024 OVC039 19/17 A3007 RMK AO2
 SLP182 T01940167=
KBAD 171056Z AUTO 00000KT 10SM OVC004 07/07 A3005 RMK AO2 SLP179 T00660066=
KBTR 171053Z 09005KT 7SM -RA OVC010 17/16 A3001 RMK AO2 RAB0956 SLP160 P0004
 T01670161 $=
KBVE 171051Z AUTO 15010KT 7SM FEW023 OVC044 21/19 A3009 RMK AO2 SLP188
 T02110189=
KCWF 171055Z AUTO 34004KT 7SM -RA OVC004 14/14 A3005 RMK AO2 P0003 T01400137=
KDRI 171055Z AUTO 04004KT 10SM RA OVC004 10/09 A3006 RMK AO2 P0003 T00960090=
KDTN 171053Z AUTO 08004KT 10SM OVC004 08/07 A3005 RMK AO2 SLP176 T00780067 $=
KHUM 171055Z AUTO 14010KT 5SM -DZ BKN013 BKN020 OVC047 19/19 A3004 RMK AO2
 T01920187=
KIER 171055Z AUTO 00000KT 10SM DZ OVC005 08/07 A3007 RMK AO2 P0002 T00750072=
KLCH 171053Z AUTO 34005KT 10SM BKN005 OVC040 14/14 A3004 RMK AO2 RAE0955B19E50
 SLP180 P0004 T01440144 $=
KLFT 171053Z AUTO 23009G18KT 5SM RA BR FEW007 BKN028 OVC037 19/19 A3001 RMK AO2
 WSHFT 1020 SLP163 P0049 T01940194=
KMSY 171053Z 15013KT 9SM FEW020 BKN038 OVC055 20/19 A3005 RMK AO2 SLP180
 T02000194=
KNBG 171055Z AUTO 13003KT 8SM FEW020 BKN025 OVC039 17/17 A3007 RMK AO2 SLP183
 T01720172 $=
KNEW 171053Z AUTO 14011KT 8SM SCT022 BKN034 OVC049 19/18 A3007 RMK AO2 SLP176
 T01890178=
KP92 171053Z AUTO 15007KT 120V200 18/17 A2999 RMK AO1 SLP155 T01780172=
KPOE 171058Z AUTO 01007KT 10SM OVC004 09/08 A3003 RMK AO2 RAE19RAB21E36 SLP171
 P0000 T00850081=
KPTN 171056Z AUTO 16013G19KT 10SM OVC008 21/20 A3001 RMK AO2 SLP162 T02110200=
KSHV 171056Z 09004KT 9SM OVC002 07/07 A3004 RMK AO2 SLP173 T00720072=
KTVR 171053Z AUTO 36006KT 7SM -RA OVC008 07/07 A3013 RMK AO2 SLP210 P0005
 T00720072=